Time;durP1;ratioP1;P1;durP2;ratioP2;P2;SDS_P1;SDS_P2;PMS_P1;PMS_P2;Temp;Humidity;BMP_temperature;BMP_pressure;BME280_temperature;BME280_humidity;BME280_pressure;Samples;Min_cycle;Max_cycle;Signal;HPM_P1;HPM_P2
2022/03/08 00:00:53;;;;;;;6.65;4.70;;;;;;;;;;6163718;23;20469;-95
2022/03/08 00:03:19;;;;;;;7.75;5.43;;;;;;;;;;6189864;23;20166;-93
2022/03/08 00:05:45;;;;;;;9.90;5.18;;;;;;;;;;6189980;23;20013;-93
2022/03/08 00:08:12;;;;;;;12.43;5.40;;;;;;;;;;6165134;23;20028;-94
2022/03/08 00:10:38;;;;;;;7.75;5.38;;;;;;;;;;6162748;23;20017;-93
2022/03/08 00:13:04;;;;;;;7.75;4.95;;;;;;;;;;6164074;23;20017;-92
2022/03/08 00:15:30;;;;;;;9.00;5.43;;;;;;;;;;6163329;23;20096;-90
2022/03/08 00:17:57;;;;;;;7.43;4.40;;;;;;;;;;6189051;23;20021;-95
2022/03/08 00:20:23;;;;;;;5.43;4.25;;;;;;;;;;6162426;23;20024;-95
2022/03/08 00:22:50;;;;;;;8.52;5.47;;;;;;;;;;6162922;23;20028;-91
2022/03/08 00:25:16;;;;;;;6.45;4.90;;;;;;;;;;6162892;23;20032;-93
2022/03/08 00:27:45;;;;;;;7.18;5.43;;;;;;;;;;6163229;23;20021;-91
2022/03/08 00:30:12;;;;;;;7.18;5.88;;;;;;;;;;6162954;23;20017;-95
2022/03/08 00:32:38;;;;;;;7.97;5.18;;;;;;;;;;6162573;23;20386;-93
2022/03/08 00:35:05;;;;;;;8.60;4.53;;;;;;;;;;6163088;23;20017;-94
2022/03/08 00:37:32;;;;;;;7.75;5.10;;;;;;;;;;6163051;23;20017;-95
2022/03/08 00:39:58;;;;;;;6.22;4.78;;;;;;;;;;6163770;23;20017;-88
2022/03/08 00:42:24;;;;;;;7.25;5.43;;;;;;;;;;6164009;23;20069;-87
2022/03/08 00:44:50;;;;;;;8.25;5.60;;;;;;;;;;6162592;23;20032;-92
2022/03/08 00:47:19;;;;;;;8.73;5.32;;;;;;;;;;6163893;23;20013;-88
2022/03/08 00:49:46;;;;;;;6.47;4.68;;;;;;;;;;6162729;23;20021;-88
2022/03/08 00:52:12;;;;;;;9.40;5.10;;;;;;;;;;6162714;23;20013;-88
2022/03/08 00:54:38;;;;;;;10.73;5.25;;;;;;;;;;6162571;23;20096;-94
2022/03/08 00:57:05;;;;;;;6.47;5.47;;;;;;;;;;6163399;23;20024;-96
2022/03/08 00:59:31;;;;;;;10.82;5.03;;;;;;;;;;6162568;23;20058;-92
2022/03/08 01:01:57;;;;;;;9.65;6.05;;;;;;;;;;6162295;23;20017;-91
2022/03/08 01:04:23;;;;;;;7.07;5.35;;;;;;;;;;6163086;23;20044;-95
2022/03/08 01:06:49;;;;;;;7.68;5.85;;;;;;;;;;6163630;23;20017;-87
2022/03/08 01:09:15;;;;;;;8.63;5.72;;;;;;;;;;6162272;23;20300;-87
2022/03/08 01:11:42;;;;;;;6.50;4.95;;;;;;;;;;6163295;23;20398;-88
2022/03/08 01:14:09;;;;;;;8.77;5.72;;;;;;;;;;6162311;23;20090;-89
2022/03/08 01:16:36;;;;;;;8.95;5.45;;;;;;;;;;6162704;23;20017;-87
2022/03/08 01:19:03;;;;;;;12.73;6.70;;;;;;;;;;6163007;23;20077;-88
2022/03/08 01:21:29;;;;;;;6.05;5.07;;;;;;;;;;6160711;23;20023;-87
2022/03/08 01:23:55;;;;;;;9.68;5.25;;;;;;;;;;6162234;23;20025;-87
2022/03/08 01:26:21;;;;;;;8.38;5.57;;;;;;;;;;6160703;23;20098;-88
2022/03/08 01:28:48;;;;;;;11.70;5.70;;;;;;;;;;6160959;23;20052;-87
2022/03/08 01:31:14;;;;;;;7.85;5.22;;;;;;;;;;6161944;23;20028;-87
2022/03/08 01:33:40;;;;;;;7.05;5.38;;;;;;;;;;6160989;23;20067;-88
2022/03/08 01:36:07;;;;;;;6.40;5.00;;;;;;;;;;6161747;23;20075;-87
2022/03/08 01:38:33;;;;;;;8.55;5.47;;;;;;;;;;6161187;23;20017;-88
2022/03/08 01:40:59;;;;;;;8.25;5.30;;;;;;;;;;6161481;23;20466;-89
2022/03/08 01:43:25;;;;;;;7.18;5.10;;;;;;;;;;6187708;23;20020;-88
2022/03/08 01:45:51;;;;;;;9.30;6.15;;;;;;;;;;6161832;23;20017;-88
2022/03/08 01:48:17;;;;;;;8.93;5.85;;;;;;;;;;6161230;23;20017;-88
2022/03/08 01:50:44;;;;;;;7.95;6.00;;;;;;;;;;6161656;23;20418;-88
2022/03/08 01:53:10;;;;;;;9.48;5.47;;;;;;;;;;6161571;23;20013;-87
2022/03/08 01:55:36;;;;;;;10.55;6.05;;;;;;;;;;6162420;23;20435;-87
2022/03/08 01:58:02;;;;;;;11.45;5.70;;;;;;;;;;6162483;23;20343;-87
2022/03/08 02:00:29;;;;;;;7.43;5.85;;;;;;;;;;6165031;23;20064;-87
2022/03/08 02:02:57;;;;;;;8.32;5.13;;;;;;;;;;6164442;23;20370;-87
2022/03/08 02:05:24;;;;;;;8.68;5.88;;;;;;;;;;6164767;23;20087;-88
2022/03/08 02:07:50;;;;;;;9.75;6.38;;;;;;;;;;6164542;23;20439;-87
2022/03/08 02:10:17;;;;;;;9.45;5.78;;;;;;;;;;6164231;23;20044;-87
2022/03/08 02:12:43;;;;;;;8.45;6.40;;;;;;;;;;6164008;23;20021;-87
2022/03/08 02:15:12;;;;;;;9.80;5.68;;;;;;;;;;6163735;23;20068;-88
2022/03/08 02:17:38;;;;;;;8.15;5.57;;;;;;;;;;6162288;23;20020;-88
2022/03/08 02:20:04;;;;;;;8.95;6.40;;;;;;;;;;6161736;23;20447;-88
2022/03/08 02:22:31;;;;;;;9.32;6.18;;;;;;;;;;6162347;23;20482;-87
2022/03/08 02:24:57;;;;;;;10.63;6.70;;;;;;;;;;6162470;23;20017;-88
2022/03/08 02:27:23;;;;;;;11.32;6.97;;;;;;;;;;6162959;23;20021;-87
2022/03/08 02:29:49;;;;;;;8.75;6.47;;;;;;;;;;6162721;23;20021;-88
2022/03/08 02:32:16;;;;;;;10.23;6.70;;;;;;;;;;6162636;23;20098;-88
2022/03/08 02:34:42;;;;;;;9.88;6.80;;;;;;;;;;6162385;23;20490;-88
2022/03/08 02:37:11;;;;;;;15.07;7.38;;;;;;;;;;6163381;23;20024;-88
2022/03/08 02:39:37;;;;;;;9.35;6.57;;;;;;;;;;6161467;23;20092;-87
2022/03/08 02:42:04;;;;;;;9.30;7.03;;;;;;;;;;6162368;23;20013;-88
2022/03/08 02:44:30;;;;;;;11.45;6.78;;;;;;;;;;6163566;23;20020;-88
2022/03/08 02:46:56;;;;;;;8.43;6.60;;;;;;;;;;6162926;23;20021;-88
2022/03/08 02:49:22;;;;;;;12.38;6.85;;;;;;;;;;6163196;23;20013;-88
2022/03/08 02:51:49;;;;;;;10.45;6.65;;;;;;;;;;6161963;23;20028;-88
2022/03/08 02:54:15;;;;;;;10.40;7.35;;;;;;;;;;6162561;23;20465;-88
2022/03/08 02:56:41;;;;;;;10.05;7.28;;;;;;;;;;6162748;23;20017;-87
2022/03/08 02:59:07;;;;;;;11.48;6.55;;;;;;;;;;6161355;23;20024;-88
2022/03/08 03:01:33;;;;;;;12.30;8.23;;;;;;;;;;6162382;23;20017;-88
2022/03/08 03:03:59;;;;;;;14.05;7.30;;;;;;;;;;6162868;23;20017;-87
2022/03/08 03:06:25;;;;;;;11.00;6.82;;;;;;;;;;6162811;23;20017;-88
2022/03/08 03:08:52;;;;;;;10.63;7.70;;;;;;;;;;6162775;23;20080;-88
2022/03/08 03:11:18;;;;;;;11.40;8.05;;;;;;;;;;6163563;23;20100;-88
2022/03/08 03:13:44;;;;;;;12.77;6.72;;;;;;;;;;6164063;23;20017;-88
2022/03/08 03:16:10;;;;;;;11.98;7.45;;;;;;;;;;6164124;23;20372;-88
2022/03/08 03:18:36;;;;;;;12.35;7.50;;;;;;;;;;6163526;23;20092;-88
2022/03/08 03:21:02;;;;;;;12.25;8.23;;;;;;;;;;6161628;23;20092;-89
2022/03/08 03:23:28;;;;;;;9.00;7.43;;;;;;;;;;6162238;23;20466;-88
2022/03/08 03:25:54;;;;;;;11.68;7.10;;;;;;;;;;6162610;23;20009;-88
2022/03/08 03:28:20;;;;;;;9.50;6.85;;;;;;;;;;6163627;23;20049;-88
2022/03/08 03:30:46;;;;;;;11.48;8.30;;;;;;;;;;6161795;23;20025;-88
2022/03/08 03:33:12;;;;;;;15.80;9.13;;;;;;;;;;6161433;23;20072;-87
2022/03/08 03:35:38;;;;;;;10.10;8.32;;;;;;;;;;6161329;23;20017;-88
2022/03/08 03:38:04;;;;;;;12.23;8.07;;;;;;;;;;6165184;23;20059;-88
2022/03/08 03:40:30;;;;;;;13.23;8.13;;;;;;;;;;6162768;23;20027;-89
2022/03/08 03:42:57;;;;;;;11.00;8.57;;;;;;;;;;6163995;23;20017;-88
2022/03/08 03:45:23;;;;;;;13.00;8.85;;;;;;;;;;6164499;23;20036;-88
2022/03/08 03:47:49;;;;;;;16.27;8.75;;;;;;;;;;6164435;23;20019;-89
2022/03/08 03:50:15;;;;;;;12.38;8.48;;;;;;;;;;6163528;23;20349;-87
2022/03/08 03:52:41;;;;;;;14.10;9.63;;;;;;;;;;6162953;23;20019;-88
2022/03/08 03:55:08;;;;;;;12.50;8.30;;;;;;;;;;6162499;23;20021;-87
2022/03/08 03:57:34;;;;;;;15.73;9.48;;;;;;;;;;6162138;23;20013;-88
2022/03/08 04:00:00;;;;;;;14.20;9.15;;;;;;;;;;6161468;23;20028;-88
2022/03/08 04:02:26;;;;;;;14.50;9.40;;;;;;;;;;6161857;23;20093;-88
2022/03/08 04:04:52;;;;;;;12.07;8.02;;;;;;;;;;6161930;23;20028;-88
2022/03/08 04:07:18;;;;;;;11.95;8.75;;;;;;;;;;6162198;23;20020;-88
2022/03/08 04:09:44;;;;;;;13.20;8.27;;;;;;;;;;6163167;23;20017;-87
2022/03/08 04:12:10;;;;;;;14.30;9.25;;;;;;;;;;6163136;23;20017;-88
2022/03/08 04:14:37;;;;;;;15.38;9.05;;;;;;;;;;6163602;23;20021;-88
2022/03/08 04:17:03;;;;;;;11.43;8.63;;;;;;;;;;6162714;23;20017;-88
2022/03/08 04:19:29;;;;;;;12.00;9.15;;;;;;;;;;6161757;23;20013;-88
2022/03/08 04:21:56;;;;;;;14.98;8.40;;;;;;;;;;6164579;23;20060;-87
2022/03/08 04:24:22;;;;;;;16.75;10.15;;;;;;;;;;6188725;23;20025;-88
2022/03/08 04:26:48;;;;;;;16.55;8.85;;;;;;;;;;6163234;23;20017;-87
2022/03/08 04:29:14;;;;;;;12.85;9.15;;;;;;;;;;6162609;23;20021;-87
2022/03/08 04:31:40;;;;;;;15.70;10.13;;;;;;;;;;6162335;23;20096;-87
2022/03/08 04:34:06;;;;;;;14.40;8.18;;;;;;;;;;6163290;23;20017;-87
2022/03/08 04:36:33;;;;;;;13.70;9.70;;;;;;;;;;6163813;23;20025;-88
2022/03/08 04:38:59;;;;;;;21.40;10.73;;;;;;;;;;6163417;23;20009;-87
2022/03/08 04:41:25;;;;;;;14.20;8.70;;;;;;;;;;6163474;23;20021;-87
2022/03/08 04:43:52;;;;;;;14.55;9.35;;;;;;;;;;6162932;23;20013;-87
2022/03/08 04:46:18;;;;;;;13.60;9.65;;;;;;;;;;6162892;23;20021;-88
2022/03/08 04:48:47;;;;;;;18.92;9.20;;;;;;;;;;6163648;23;20017;-87
2022/03/08 04:51:13;;;;;;;15.45;10.32;;;;;;;;;;6163186;23;20066;-86
2022/03/08 04:53:40;;;;;;;12.05;8.45;;;;;;;;;;6162742;23;20406;-87
2022/03/08 04:56:06;;;;;;;15.35;9.18;;;;;;;;;;6163300;23;20025;-88
2022/03/08 04:58:32;;;;;;;16.35;9.93;;;;;;;;;;6163205;23;20023;-87
2022/03/08 05:00:58;;;;;;;14.43;9.18;;;;;;;;;;6162611;23;20017;-88
2022/03/08 05:03:24;;;;;;;12.38;9.57;;;;;;;;;;6163890;23;20056;-88
2022/03/08 05:05:50;;;;;;;17.90;9.43;;;;;;;;;;6162257;23;20013;-88
2022/03/08 05:08:16;;;;;;;17.52;9.27;;;;;;;;;;6161695;23;20383;-88
2022/03/08 05:10:44;;;;;;;22.52;11.10;;;;;;;;;;6161592;23;20070;-88
2022/03/08 05:13:10;;;;;;;16.92;9.82;;;;;;;;;;6161544;23;20017;-88
2022/03/08 05:15:36;;;;;;;18.30;10.75;;;;;;;;;;6161057;23;20100;-88
2022/03/08 05:18:03;;;;;;;18.50;10.48;;;;;;;;;;6160930;23;20399;-89
2022/03/08 05:20:29;;;;;;;17.77;10.55;;;;;;;;;;6160173;23;20332;-88
2022/03/08 05:22:56;;;;;;;13.20;9.35;;;;;;;;;;6160929;23;20025;-88
2022/03/08 05:25:23;;;;;;;15.57;10.50;;;;;;;;;;6161278;23;20021;-87
2022/03/08 05:27:49;;;;;;;16.63;11.00;;;;;;;;;;6161848;23;20017;-87
2022/03/08 05:30:15;;;;;;;17.60;9.48;;;;;;;;;;6162484;23;20049;-88
2022/03/08 05:32:41;;;;;;;19.65;10.63;;;;;;;;;;6162885;23;20017;-88
2022/03/08 05:35:08;;;;;;;14.50;10.43;;;;;;;;;;6163245;23;20048;-87
2022/03/08 05:37:36;;;;;;;16.67;10.18;;;;;;;;;;6162637;23;20021;-87
2022/03/08 05:40:03;;;;;;;17.52;10.48;;;;;;;;;;6162744;23;20105;-87
2022/03/08 05:42:29;;;;;;;17.08;9.95;;;;;;;;;;6162492;23;20378;-88
2022/03/08 05:44:55;;;;;;;21.08;11.05;;;;;;;;;;6163274;23;20028;-87
2022/03/08 05:47:21;;;;;;;18.33;11.35;;;;;;;;;;6163331;23;20013;-88
2022/03/08 05:49:47;;;;;;;17.98;10.43;;;;;;;;;;6163065;23;20020;-88
2022/03/08 05:52:14;;;;;;;15.95;10.20;;;;;;;;;;6163267;23;20021;-88
2022/03/08 05:54:40;;;;;;;19.23;10.27;;;;;;;;;;6162946;23;20021;-87
2022/03/08 05:57:06;;;;;;;19.23;10.90;;;;;;;;;;6163501;23;20024;-88
2022/03/08 05:59:32;;;;;;;16.88;9.65;;;;;;;;;;6163612;23;20024;-88
2022/03/08 06:01:58;;;;;;;14.88;9.18;;;;;;;;;;6163464;23;20067;-88
2022/03/08 06:04:24;;;;;;;18.98;10.98;;;;;;;;;;6163138;23;20021;-88
2022/03/08 06:06:51;;;;;;;16.73;10.88;;;;;;;;;;6163862;23;20052;-88
2022/03/08 06:09:17;;;;;;;17.85;9.10;;;;;;;;;;6164276;23;20021;-88
2022/03/08 06:11:43;;;;;;;14.07;9.75;;;;;;;;;;6164028;23;20028;-88
2022/03/08 06:14:09;;;;;;;19.58;11.05;;;;;;;;;;6163098;23;20020;-88
2022/03/08 06:16:35;;;;;;;15.95;10.38;;;;;;;;;;6159836;23;20020;-88
2022/03/08 06:19:02;;;;;;;17.05;9.88;;;;;;;;;;6156462;23;20040;-88
2022/03/08 06:21:28;;;;;;;15.43;9.60;;;;;;;;;;6154963;23;20430;-88
2022/03/08 06:23:54;;;;;;;21.60;11.70;;;;;;;;;;6155568;23;20069;-87
2022/03/08 06:26:20;;;;;;;16.90;10.70;;;;;;;;;;6159400;23;20017;-88
2022/03/08 06:28:46;;;;;;;16.38;10.45;;;;;;;;;;6162415;23;20084;-88
2022/03/08 06:31:12;;;;;;;21.23;10.68;;;;;;;;;;6162130;23;20021;-88
2022/03/08 06:33:38;;;;;;;23.73;10.85;;;;;;;;;;6161709;23;20024;-88
2022/03/08 06:36:04;;;;;;;16.58;10.95;;;;;;;;;;6162986;23;20021;-88
2022/03/08 06:38:30;;;;;;;17.42;10.50;;;;;;;;;;6161302;23;20013;-88
2022/03/08 06:40:56;;;;;;;18.85;10.05;;;;;;;;;;6160960;23;20021;-88
2022/03/08 06:43:22;;;;;;;16.08;11.02;;;;;;;;;;6161240;23;20013;-88
2022/03/08 06:45:49;;;;;;;16.58;11.23;;;;;;;;;;6161817;23;20017;-88
2022/03/08 06:48:15;;;;;;;21.75;11.52;;;;;;;;;;6161683;23;20017;-88
2022/03/08 06:50:41;;;;;;;17.60;10.05;;;;;;;;;;6161846;23;20355;-88
2022/03/08 06:53:07;;;;;;;17.38;10.98;;;;;;;;;;6161788;23;20347;-88
2022/03/08 06:55:35;;;;;;;18.27;12.02;;;;;;;;;;6162091;23;20056;-88
2022/03/08 06:58:01;;;;;;;15.35;10.65;;;;;;;;;;6162055;23;20017;-89
2022/03/08 07:00:27;;;;;;;23.85;12.10;;;;;;;;;;6161111;23;20108;-89
2022/03/08 07:02:53;;;;;;;15.40;10.18;;;;;;;;;;6161581;23;20013;-89
2022/03/08 07:05:19;;;;;;;26.33;11.85;;;;;;;;;;6161905;23;20055;-88
2022/03/08 07:07:45;;;;;;;23.75;12.30;;;;;;;;;;6161594;23;20024;-89
2022/03/08 07:10:11;;;;;;;19.05;11.25;;;;;;;;;;6161301;23;20538;-88
2022/03/08 07:12:37;;;;;;;19.42;11.25;;;;;;;;;;6162884;23;20100;-89
2022/03/08 07:15:04;;;;;;;19.15;10.63;;;;;;;;;;6161612;23;20021;-89
2022/03/08 07:17:30;;;;;;;21.67;12.02;;;;;;;;;;6187790;23;20443;-89
2022/03/08 07:19:56;;;;;;;17.70;11.30;;;;;;;;;;6161280;23;20060;-88
2022/03/08 07:22:22;;;;;;;18.38;10.93;;;;;;;;;;6161022;23;20048;-88
2022/03/08 07:24:51;;;;;;;21.75;11.77;;;;;;;;;;6160781;23;20028;-88
2022/03/08 07:27:21;;;;;;;14.27;11.07;;;;;;;;;;6160733;23;20021;-88
2022/03/08 07:29:47;;;;;;;18.98;11.73;;;;;;;;;;6161097;23;20473;-88
2022/03/08 07:32:15;;;;;;;23.52;11.13;;;;;;;;;;6162614;23;20017;-89
2022/03/08 07:34:47;;;;;;;21.13;11.52;;;;;;;;;;6162202;23;20450;-89
2022/03/08 07:37:16;;;;;;;16.85;10.75;;;;;;;;;;6161531;23;20016;-89
2022/03/08 07:40:04;;;;;;;15.35;11.13;;;;;;;;;;6188210;23;20016;-88
2022/03/08 07:42:30;;;;;;;15.95;10.20;;;;;;;;;;6161127;23;20447;-89
2022/03/08 07:44:58;;;;;;;18.58;10.70;;;;;;;;;;6198627;23;20028;-87
2022/03/08 07:47:25;;;;;;;21.52;9.95;;;;;;;;;;6172479;23;20021;-88
2022/03/08 07:49:57;;;;;;;16.95;10.32;;;;;;;;;;6178761;23;20017;-89
2022/03/08 07:52:23;;;;;;;19.20;10.40;;;;;;;;;;6176777;23;20060;-88
2022/03/08 07:54:49;;;;;;;17.90;11.18;;;;;;;;;;6176870;23;20052;-87
2022/03/08 07:57:24;;;;;;;16.20;10.57;;;;;;;;;;6202269;23;20023;-90
2022/03/08 07:59:50;;;;;;;17.08;11.48;;;;;;;;;;6177256;23;20028;-90
2022/03/08 08:02:17;;;;;;;16.67;10.13;;;;;;;;;;6172951;23;20067;-90
2022/03/08 08:04:43;;;;;;;16.27;9.80;;;;;;;;;;6170882;23;20466;-93
2022/03/08 08:07:09;;;;;;;15.98;9.88;;;;;;;;;;6168940;23;20013;-93
2022/03/08 08:09:35;;;;;;;18.02;10.57;;;;;;;;;;6168752;23;20052;-95
2022/03/08 08:12:01;;;;;;;17.13;10.05;;;;;;;;;;6166873;23;20023;-90
2022/03/08 08:14:27;;;;;;;13.02;8.63;;;;;;;;;;6165266;23;20024;-96
2022/03/08 08:16:53;;;;;;;14.20;8.88;;;;;;;;;;6162921;23;20052;-95
2022/03/08 08:19:19;;;;;;;15.80;10.65;;;;;;;;;;6162414;23;20112;-90
2022/03/08 08:21:46;;;;;;;13.35;8.50;;;;;;;;;;6162479;23;20021;-95
2022/03/08 08:24:12;;;;;;;14.48;9.70;;;;;;;;;;6162065;23;20020;-96
2022/03/08 08:26:38;;;;;;;16.85;9.93;;;;;;;;;;6161586;23;20092;-96
2022/03/08 08:29:04;;;;;;;14.00;9.68;;;;;;;;;;6161605;23;20021;-96
2022/03/08 08:31:32;;;;;;;17.17;8.38;;;;;;;;;;6163025;23;20067;-96
2022/03/08 08:33:58;;;;;;;11.98;8.68;;;;;;;;;;6162322;23;20067;-94
2022/03/08 08:36:24;;;;;;;13.43;9.00;;;;;;;;;;6161977;23;20021;-95
2022/03/08 08:38:50;;;;;;;14.50;9.07;;;;;;;;;;6162085;23;20044;-94
2022/03/08 08:41:16;;;;;;;21.40;10.00;;;;;;;;;;6162296;23;20017;-95
2022/03/08 08:43:42;;;;;;;15.35;9.13;;;;;;;;;;6161491;23;20021;-96
2022/03/08 08:46:08;;;;;;;14.43;8.38;;;;;;;;;;6161065;23;20020;-95
2022/03/08 08:48:35;;;;;;;10.55;8.10;;;;;;;;;;6162123;23;20028;-94
2022/03/08 08:51:01;;;;;;;12.32;8.50;;;;;;;;;;6162049;23;20048;-92
2022/03/08 08:53:27;;;;;;;13.25;8.18;;;;;;;;;;6161371;23;20013;-90
2022/03/08 08:55:53;;;;;;;11.13;8.43;;;;;;;;;;6161610;23;20048;-90
2022/03/08 08:58:19;;;;;;;14.10;8.65;;;;;;;;;;6162079;23;20079;-91
2022/03/08 09:00:45;;;;;;;13.02;8.25;;;;;;;;;;6161974;23;20125;-95
2022/03/08 09:03:14;;;;;;;12.75;9.30;;;;;;;;;;6160898;23;20068;-88
2022/03/08 09:05:49;;;;;;;11.73;8.48;;;;;;;;;;6161765;23;20305;-94
2022/03/08 09:08:22;;;;;;;13.23;8.98;;;;;;;;;;6161533;23;20025;-90
2022/03/08 09:10:48;;;;;;;11.52;8.55;;;;;;;;;;6162665;23;20020;-91
2022/03/08 09:13:14;;;;;;;15.63;8.85;;;;;;;;;;6161681;23;20020;-89
2022/03/08 09:15:40;;;;;;;12.57;8.48;;;;;;;;;;6161281;23;20343;-90
2022/03/08 09:18:07;;;;;;;27.60;9.52;;;;;;;;;;6161622;23;20028;-89
2022/03/08 09:20:33;;;;;;;10.00;7.00;;;;;;;;;;6161748;23;20021;-89
2022/03/08 09:22:59;;;;;;;13.38;8.43;;;;;;;;;;6161921;23;20442;-90
2022/03/08 09:25:26;;;;;;;13.45;8.27;;;;;;;;;;6160449;23;20032;-90
2022/03/08 09:27:52;;;;;;;10.38;7.05;;;;;;;;;;6160825;23;20017;-90
2022/03/08 09:30:18;;;;;;;11.23;7.43;;;;;;;;;;6160429;23;20143;-90
2022/03/08 09:32:44;;;;;;;9.98;7.25;;;;;;;;;;6160566;23;20017;-90
2022/03/08 09:35:11;;;;;;;10.15;7.22;;;;;;;;;;6161489;23;20068;-90
2022/03/08 09:37:37;;;;;;;10.30;7.45;;;;;;;;;;6161912;23;20048;-89
2022/03/08 09:40:04;;;;;;;11.80;7.70;;;;;;;;;;6160528;23;20075;-89
2022/03/08 09:42:31;;;;;;;12.10;7.43;;;;;;;;;;6160136;23;20017;-90
2022/03/08 09:44:57;;;;;;;9.00;5.93;;;;;;;;;;6160253;23;20482;-88
2022/03/08 09:47:24;;;;;;;10.30;7.47;;;;;;;;;;6160831;23;20017;-89
2022/03/08 09:49:50;;;;;;;10.90;7.55;;;;;;;;;;6160677;23;20017;-89
2022/03/08 09:52:18;;;;;;;13.90;7.07;;;;;;;;;;6186830;23;20358;-88
2022/03/08 09:54:45;;;;;;;9.43;6.82;;;;;;;;;;6162688;23;20064;-88
2022/03/08 09:57:12;;;;;;;9.32;6.85;;;;;;;;;;6161080;23;20005;-89
2022/03/08 09:59:38;;;;;;;8.60;6.82;;;;;;;;;;6160750;23;20418;-89
2022/03/08 10:02:05;;;;;;;10.93;6.75;;;;;;;;;;6159897;23;20092;-89
2022/03/08 10:04:31;;;;;;;11.10;7.28;;;;;;;;;;6161803;23;20338;-89
2022/03/08 10:06:57;;;;;;;12.23;7.50;;;;;;;;;;6161638;23;20015;-89
2022/03/08 10:09:24;;;;;;;9.30;5.95;;;;;;;;;;6161678;23;20021;-89
2022/03/08 10:11:50;;;;;;;10.55;6.80;;;;;;;;;;6162007;23;20017;-88
2022/03/08 10:14:28;;;;;;;9.80;6.22;;;;;;;;;;6163247;23;20021;-88
2022/03/08 10:16:54;;;;;;;9.43;7.05;;;;;;;;;;6161967;23;20077;-88
2022/03/08 10:19:20;;;;;;;9.93;6.43;;;;;;;;;;6162946;23;20021;-89
2022/03/08 10:21:55;;;;;;;16.30;5.95;;;;;;;;;;6163025;23;20024;-89
2022/03/08 10:24:25;;;;;;;8.45;6.35;;;;;;;;;;6162834;23;20467;-88
2022/03/08 10:27:03;;;;;;;9.00;6.00;;;;;;;;;;6163321;23;20069;-88
2022/03/08 10:29:30;;;;;;;6.18;4.90;;;;;;;;;;6161933;23;20017;-89
2022/03/08 10:32:09;;;;;;;6.85;5.38;;;;;;;;;;6161821;23;20017;-88
2022/03/08 10:34:41;;;;;;;10.63;5.80;;;;;;;;;;6161058;23;20351;-88
2022/03/08 10:37:14;;;;;;;6.93;5.88;;;;;;;;;;6161726;23;20044;-88
2022/03/08 10:39:56;;;;;;;7.90;6.05;;;;;;;;;;6161515;23;20047;-89
2022/03/08 10:42:25;;;;;;;8.50;5.63;;;6.90;99.90;;;;;;6161464;23;20443;-88
2022/03/08 10:44:53;;;;;;;13.50;4.80;;;;;;;;;;6161551;23;20020;-89
2022/03/08 10:47:19;;;;;;;6.53;5.25;;;;;;;;;;6162380;23;20100;-89
2022/03/08 10:49:48;;;;;;;7.78;5.40;;;;;;;;;;6161554;23;20100;-89
2022/03/08 10:52:14;;;;;;;10.98;5.45;;;;;;;;;;6161660;23;20105;-89
2022/03/08 10:54:40;;;;;;;8.48;5.38;;;;;;;;;;6161829;23;20009;-89
2022/03/08 10:57:06;;;;;;;6.57;4.90;;;;;;;;;;6161368;23;20080;-89
2022/03/08 10:59:32;;;;;;;5.75;4.93;;;;;;;;;;6162117;23;20028;-89
2022/03/08 11:01:58;;;;;;;8.77;5.05;;;;;;;;;;6161803;23;20067;-91
2022/03/08 11:04:24;;;;;;;5.95;4.45;;;;;;;;;;6161463;23;20057;-90
2022/03/08 11:06:52;;;;;;;8.63;4.72;;;;;;;;;;6161370;23;20347;-90
2022/03/08 11:09:18;;;;;;;6.63;5.15;;;;;;;;;;6161166;23;20017;-89
2022/03/08 11:11:45;;;;;;;9.55;4.72;;;;;;;;;;6161332;23;20025;-90
2022/03/08 11:14:11;;;;;;;6.05;4.60;;;;;;;;;;6161425;23;20067;-90
2022/03/08 11:16:38;;;;;;;5.82;4.40;;;;;;;;;;6161830;23;20028;-91
2022/03/08 11:19:05;;;;;;;6.07;4.57;;;;;;;;;;6161907;23;20017;-88
2022/03/08 11:21:33;;;;;;;5.05;4.55;;;;;;;;;;6143147;23;20104;-89
2022/03/08 11:23:59;;;;;;;10.55;4.40;;;;;;;;;;6107302;23;20471;-88
2022/03/08 11:26:25;;;;;;;5.32;4.38;;;;;;;;;;6107084;23;20024;-90
2022/03/08 11:28:51;;;;;;;6.35;5.28;;;;;;;;;;6107753;23;20018;-90
2022/03/08 11:31:18;;;;;;;8.45;4.47;;;;;;;;;;6107981;23;20021;-90
2022/03/08 11:34:01;;;;;;;6.20;4.75;;;;;;;;;;6133370;23;20020;-89
2022/03/08 11:36:45;;;;;;;7.43;4.65;;;;;;;;;;6108787;23;20447;-89
2022/03/08 11:39:30;;;;;;;4.50;4.03;;;;;;;;;;6108598;23;20052;-89
2022/03/08 11:42:20;;;;;;;7.82;4.22;;;;;;;;;;6132203;23;20033;-89
2022/03/08 11:44:58;;;;;;;5.85;4.50;;;;;;;;;;6107570;23;20022;-88
2022/03/08 11:47:35;;;;;;;5.10;4.15;;;;;;;;;;6132617;23;20021;-89
2022/03/08 11:50:01;;;;;;;6.78;4.80;;;;;;;;;;6158430;23;20092;-89
2022/03/08 11:52:27;;;;;;;6.32;3.70;;;;;;;;;;6108154;23;20025;-90
2022/03/08 11:55:06;;;;;;;5.75;4.32;;;;;;;;;;6132078;23;20028;-90
2022/03/08 11:57:44;;;;;;;6.38;4.90;;;;;;;;;;6134136;23;20065;-89
2022/03/08 12:00:21;;;;;;;6.10;3.78;;;;;;;;;;6110065;23;20017;-88
2022/03/08 12:02:50;;;;;;;5.53;3.95;;;;;;;;;;6109362;23;20085;-89
2022/03/08 12:05:39;;;;;;;6.45;4.03;;;9.00;99.90;;;;;;6109066;23;20100;-89
2022/03/08 12:08:27;;;;;;;7.22;4.30;;;9.00;99.90;;;;;;6132189;23;20096;-90
2022/03/08 12:10:58;;;;;;;7.47;4.10;;;;;;;;;;6169239;23;20412;-89
2022/03/08 12:13:38;;;;;;;5.95;4.63;;;;;;;;;;6140418;23;20025;-89
2022/03/08 12:16:10;;;;;;;6.10;4.80;;;;;;;;;;6143787;23;20025;-91
2022/03/08 12:18:40;;;;;;;7.43;5.15;;;;;;;;;;6144830;23;20087;-92
2022/03/08 12:21:25;;;;;;;6.80;5.13;;;;;;;;;;6148471;23;20032;-89
2022/03/08 12:23:58;;;;;;;5.75;5.13;;;;;;;;;;6148977;23;20025;-90
2022/03/08 12:26:33;;;;;;;5.70;4.85;;;;;;;;;;6123091;23;20024;-91
2022/03/08 12:29:16;;;;;;;7.72;5.15;;;;;;;;;;6122942;23;20100;-92
2022/03/08 12:32:06;;;;;;;6.53;4.60;;;;;;;;;;6114497;23;20526;-89
2022/03/08 12:34:39;;;;;;;5.18;4.45;;;;;;;;;;6115066;23;20021;-92
2022/03/08 12:37:24;;;;;;;6.68;4.15;;;;;;;;;;6116322;23;20002;-92
2022/03/08 12:39:53;;;;;;;8.30;4.63;;;;;;;;;;6127819;23;20067;-89
2022/03/08 12:42:20;;;;;;;7.22;3.17;;;;;;;;;;6153522;23;20022;-90
2022/03/08 12:44:53;;;;;;;4.97;3.50;;;;;;;;;;6128961;23;20025;-90
2022/03/08 12:47:19;;;;;;;5.78;4.20;;;;;;;;;;6129423;23;20029;-89
2022/03/08 12:49:46;;;;;;;8.27;3.65;;;;;;;;;;6130010;23;20025;-89
2022/03/08 12:52:13;;;;;;;6.85;3.60;;;;;;;;;;6139887;23;20021;-95
2022/03/08 12:54:41;;;;;;;4.75;3.35;;;;;;;;;;6108794;23;20035;-95
2022/03/08 12:57:09;;;;;;;5.00;3.72;;;;;;;;;;6108946;23;20092;-92
2022/03/08 12:59:41;;;;;;;3.95;3.40;;;;;;;;;;6108243;23;20013;-92
2022/03/08 13:02:11;;;;;;;5.30;3.70;;;;;;;;;;6108299;23;20018;-91
2022/03/08 13:04:37;;;;;;;4.47;3.58;;;;;;;;;;6107624;23;20017;-92
2022/03/08 13:07:14;;;;;;;4.15;3.60;;;;;;;;;;6132494;23;20017;-92
2022/03/08 13:09:57;;;;;;;4.20;3.10;;;;;;;;;;6109368;23;20044;-91
2022/03/08 13:12:24;;;;;;;4.85;3.28;;;;;;;;;;6108971;23;20021;-92
2022/03/08 13:15:11;;;;;;;3.80;3.35;;;;;;;;;;6133436;23;20466;-91
2022/03/08 13:17:38;;;;;;;5.18;3.90;;;;;;;;;;6108236;23;20018;-91
2022/03/08 13:20:05;;;;;;;6.63;3.78;;;;;;;;;;6133199;23;20014;-92
2022/03/08 13:22:31;;;;;;;5.90;4.07;;;;;;;;;;6162077;23;20473;-93
2022/03/08 13:25:09;;;;;;;4.43;3.63;;;;;;;;;;6162520;23;20048;-92
2022/03/08 13:27:51;;;;;;;6.63;4.13;;;;;;;;;;6161015;23;20021;-90
2022/03/08 13:30:22;;;;;;;5.85;4.80;;;;;;;;;;6161600;23;20028;-91
2022/03/08 13:32:49;;;;;;;4.68;3.78;;;;;;;;;;6162465;23;20024;-89
2022/03/08 13:35:16;;;;;;;4.40;3.92;;;;;;;;;;6161000;23;20024;-91
2022/03/08 13:37:49;;;;;;;4.90;3.47;;;;;;;;;;6161599;23;20048;-91
2022/03/08 13:40:29;;;;;;;6.25;3.72;;;;;;;;;;6161401;23;20009;-87
2022/03/08 13:42:59;;;;;;;7.28;4.22;;;;;;;;;;6160880;23;20343;-89
2022/03/08 13:45:25;;;;;;;9.48;3.83;;;;;;;;;;6161842;23;20374;-90
2022/03/08 13:47:54;;;;;;;5.93;3.55;;;;;;;;;;6160581;23;20017;-87
2022/03/08 13:50:21;;;;;;;6.40;4.18;;;;;;;;;;6160194;23;20455;-87
2022/03/08 13:52:51;;;;;;;4.75;4.00;;;;;;;;;;6162458;23;20021;-86
2022/03/08 13:55:17;;;;;;;3.88;3.47;;;;;;;;;;6162702;23;20025;-86
2022/03/08 13:57:53;;;;;;;6.45;3.58;;;;;;;;;;6163185;23;20021;-87
2022/03/08 14:00:19;;;;;;;5.22;3.33;;;;;;;;;;6163460;23;20043;-87
2022/03/08 14:02:45;;;;;;;5.22;3.67;;;;;;;;;;6161970;23;20014;-87
2022/03/08 14:05:11;;;;;;;4.28;3.72;;;;;;;;;;6162733;23;20103;-87
2022/03/08 14:07:37;;;;;;;8.27;3.40;;;;;;;;;;6163950;23;20037;-89
2022/03/08 14:10:04;;;;;;;3.83;2.92;;;;;;;;;;6162301;23;20035;-87
2022/03/08 14:12:50;;;;;;;5.15;3.30;;;10.50;99.90;;;;;;6163134;23;20017;-87
2022/03/08 14:15:17;;;;;;;4.63;3.80;;;;;;;;;;6138155;23;20064;-87
2022/03/08 14:17:44;;;;;;;4.22;3.28;;;;;;;;;;6163386;23;20021;-87
2022/03/08 14:20:21;;;;;;;5.40;3.67;;;;;;;;;;6163131;23;20017;-87
2022/03/08 14:23:04;;;;;;;7.05;4.00;;;;;;;;;;6163044;23;20025;-86
2022/03/08 14:25:30;;;;;;;5.78;3.08;;;;;;;;;;6162542;23;20320;-86
2022/03/08 14:27:56;;;;;;;6.82;4.70;;;;;;;;;;6162694;23;20021;-87
2022/03/08 14:30:27;;;;;;;5.35;3.13;;;10.30;99.90;;;;;;6162565;23;20403;-88
2022/03/08 14:33:05;;;;;;;3.92;3.50;;;10.50;99.90;;;;;;6162352;23;20017;-89
2022/03/08 14:35:31;;;;;;;8.38;3.80;;;;;;;;;;6137062;23;20036;-88